Time;durP1;ratioP1;P1;durP2;ratioP2;P2;SDS_P1;SDS_P2;PMS_P1;PMS_P2;Temp;Humidity;BMP_temperature;BMP_pressure;BME280_temperature;BME280_humidity;BME280_pressure;Samples;Min_cycle;Max_cycle;Signal;HPM_P1;HPM_P2
2022/11/17 00:01:28;;;;;;;;;2.00;2.00;;;;;14.67;100.00;98312.34;5053195;28;45486;-75
2022/11/17 00:03:53;;;;;;;;;4.67;2.00;;;;;14.71;100.00;98309.56;5053406;28;55325;-76
2022/11/17 00:06:19;;;;;;;;;4.67;1.67;;;;;14.70;100.00;98286.56;5055411;28;47489;-77
2022/11/17 00:08:45;;;;;;;;;2.67;1.00;;;;;14.72;100.00;98304.16;5037758;28;45353;-77
2022/11/17 00:11:10;;;;;;;;;3.67;1.00;;;;;14.71;100.00;98304.25;5053522;28;45526;-77
2022/11/17 00:16:20;;;;;;;;;4.67;1.00;;;;;14.71;100.00;98297.13;5036542;28;45520;-77
2022/11/17 00:21:30;;;;;;;;;4.67;1.33;;;;;14.74;100.00;98290.81;5054423;28;47209;-76
2022/11/17 00:23:55;;;;;;;;;6.00;1.00;;;;;14.76;100.00;98291.63;5050641;28;45553;-75
2022/11/17 00:26:29;;;;;;;;;4.00;1.67;;;;;14.76;100.00;98296.94;5056126;28;57236;-76
2022/11/17 00:28:56;;;;;;;;;7.33;3.33;;;;;14.76;100.00;98295.13;5055247;28;45437;-76
2022/11/17 00:34:11;;;;;;;;;4.33;2.33;;;;;14.75;100.00;98293.38;5055235;28;45661;-76
2022/11/17 00:36:42;;;;;;;;;3.00;2.00;;;;;14.76;100.00;98310.22;5046995;28;46831;-75
2022/11/17 00:39:08;;;;;;;;;3.00;1.00;;;;;14.76;100.00;98304.91;5037477;28;45353;-76
2022/11/17 00:41:33;;;;;;;;;4.00;1.00;;;;;14.77;100.00;98304.81;5055306;28;45440;-76
2022/11/17 00:43:59;;;;;;;;;3.33;0.00;;;;;14.75;100.00;98306.66;5056005;28;45550;-77
2022/11/17 00:46:24;;;;;;;;;5.67;1.00;;;;;14.75;100.00;98295.19;5055122;28;45762;-76
2022/11/17 00:48:50;;;;;;;;;3.00;2.00;;;;;14.77;100.00;98306.63;5055718;28;45354;-76
2022/11/17 00:51:15;;;;;;;;;3.00;2.67;;;;;14.77;100.00;98310.13;5027874;28;45636;-77
2022/11/17 00:53:40;;;;;;;;;1.33;1.33;;;;;14.76;100.00;98310.22;5049051;28;45269;-77
2022/11/17 00:56:06;;;;;;;;;2.00;0.67;;;;;14.76;100.00;98323.50;5044860;28;61285;-77
2022/11/17 00:58:33;;;;;;;;;5.67;1.00;;;;;14.77;100.00;98320.75;5044522;28;45360;-76
2022/11/17 01:00:58;;;;;;;;;2.00;1.00;;;;;14.77;100.00;98320.75;5049516;28;45445;-77
2022/11/17 01:03:24;;;;;;;;;4.67;0.67;;;;;14.77;100.00;98325.22;5047520;28;52939;-76
2022/11/17 01:05:49;;;;;;;;;3.00;1.33;;;;;14.74;100.00;98343.94;5035767;28;63962;-77
2022/11/17 01:08:14;;;;;;;;;3.67;0.00;;;;;14.76;100.00;98339.44;5051838;28;59528;-76
2022/11/17 01:10:40;;;;;;;;;2.33;0.00;;;;;14.75;100.00;98340.34;5054047;28;52228;-77
2022/11/17 01:13:05;;;;;;;;;2.33;1.33;;;;;14.77;100.00;98341.16;5053621;28;59106;-77
2022/11/17 01:15:32;;;;;;;;;6.00;1.00;;;;;14.75;100.00;98350.97;5019871;28;62826;-76
2022/11/17 01:17:57;;;;;;;;;6.00;1.00;;;;;14.76;100.00;98368.66;5050059;28;45507;-76
2022/11/17 01:20:23;;;;;;;;;4.00;2.00;;;;;14.72;100.00;98343.16;5023083;28;54473;-76
2022/11/17 01:22:48;;;;;;;;;3.00;0.00;;;;;14.70;100.00;98358.28;5044207;28;55094;-76
2022/11/17 01:25:13;;;;;;;;;2.67;2.00;;;;;14.71;100.00;98346.75;5053759;28;62826;-76
2022/11/17 01:27:39;;;;;;;;;1.00;0.00;;;;;14.71;100.00;98357.38;5055135;28;45515;-76
2022/11/17 01:30:05;;;;;;;;;1.33;1.00;;;;;14.74;100.00;98362.53;5053468;28;52324;-77
2022/11/17 01:32:30;;;;;;;;;1.00;0.00;;;;;14.74;100.00;98371.34;5052149;28;45343;-76
2022/11/17 01:34:55;;;;;;;;;3.33;1.00;;;;;14.73;100.00;98393.53;5220440;22;61107;-76
2022/11/17 01:37:21;;;;;;;;;1.00;0.00;;;;;14.74;100.00;98386.44;5098620;27;60414;-76
2022/11/17 01:39:47;;;;;;;;;3.00;0.00;;;;;14.73;100.00;98385.56;5098683;27;45300;-76
2022/11/17 01:42:20;;;;;;;;;1.00;1.00;;;;;14.72;100.00;98439.63;5099205;27;45410;-76
2022/11/17 01:44:56;;;;;;;;;1.00;0.00;;;;;14.73;100.00;98411.28;5098542;27;45891;-75
2022/11/17 01:47:22;;;;;;;;;1.00;0.00;;;;;14.70;100.00;98408.75;5076731;27;45504;-75
2022/11/17 01:49:54;;;;;;;;;3.00;0.00;;;;;14.64;100.00;98399.25;5074657;27;45292;-77
2022/11/17 01:52:19;;;;;;;;;2.00;0.00;;;;;14.63;100.00;98417.00;5099147;27;45514;-76
2022/11/17 01:54:46;;;;;;;;;0.00;0.00;;;;;14.61;100.00;98410.03;5072573;28;56635;-75
2022/11/17 01:57:16;;;;;;;;;1.00;0.00;;;;;14.60;100.00;98409.19;5074392;27;66446;-75
2022/11/17 01:59:45;;;;;;;;;2.67;0.00;;;;;14.59;100.00;98396.81;5096916;27;45493;-76
2022/11/17 02:02:10;;;;;;;;;2.00;0.00;;;;;14.54;100.00;98412.09;5077172;27;45550;-75
2022/11/17 02:04:40;;;;;;;;;3.00;0.00;;;;;14.54;100.00;98417.41;5095878;27;47426;-76
2022/11/17 02:07:26;;;;;;;;;1.33;0.00;;;;;14.53;100.00;98418.31;5078652;27;45261;-76
2022/11/17 02:09:52;;;;;;;;;4.00;0.33;;;;;14.55;100.00;98421.78;5092607;27;45336;-76
2022/11/17 02:12:18;;;;;;;;;0.00;0.00;;;;;14.54;100.00;98421.84;5078127;27;45546;-76
2022/11/17 02:14:43;;;;;;;;;0.00;0.00;;;;;14.55;100.00;98432.41;5080718;27;46637;-75
2022/11/17 02:17:10;;;;;;;;;3.00;0.00;;;;;14.56;100.00;98427.97;5097786;27;45327;-76
2022/11/17 02:19:40;;;;;;;;;3.33;0.67;;;;;14.57;100.00;98435.84;5078842;27;45326;-77
2022/11/17 02:22:36;;;;;;;;;0.00;0.00;;;;;14.57;100.00;98432.34;5098176;27;45464;-77
2022/11/17 02:25:16;;;;;;;;;0.67;0.00;;;;;14.55;100.00;98440.38;5096444;27;45536;-76
2022/11/17 02:28:09;;;;;;;;;0.00;0.00;;;;;14.55;100.00;98436.88;5098450;27;45557;-75
2022/11/17 02:30:43;;;;;;;;;1.00;0.00;;;;;14.52;100.00;98445.81;5098905;27;45473;-75
2022/11/17 02:33:11;;;;;;;;;0.00;0.00;;;;;14.51;100.00;98445.88;5075665;28;45456;-75
2022/11/17 02:36:01;;;;;;;;;0.67;0.00;;;;;14.45;100.00;98430.19;5086264;27;45767;-75
2022/11/17 02:38:32;;;;;;;;;0.67;0.00;;;;;14.48;100.00;98446.88;5065589;27;45325;-74
2022/11/17 02:41:32;;;;;;;;;2.00;0.00;;;;;14.51;100.00;98444.09;5095277;27;45453;-77
2022/11/17 02:44:09;;;;;;;;;3.33;0.33;;;;;14.47;100.00;98460.19;5065460;27;45366;-76
2022/11/17 02:46:47;;;;;;;;;1.33;0.00;;;;;14.49;100.00;98476.94;5068641;27;45801;-74
2022/11/17 02:49:18;;;;;;;;;1.00;0.00;;;;;14.48;100.00;98464.59;5083394;27;45490;-74
2022/11/17 02:51:48;;;;;;;;;0.00;0.00;;;;;14.48;100.00;98461.94;5086756;27;45589;-75
2022/11/17 02:54:13;;;;;;;;;3.00;0.00;;;;;14.49;100.00;98451.28;5087058;27;45481;-75
2022/11/17 02:56:40;;;;;;;;;0.00;0.00;;;;;14.50;100.00;98466.25;5071740;27;47133;-74
2022/11/17 02:59:06;;;;;;;;;0.00;0.00;;;;;14.48;100.00;98461.94;5093586;27;45684;-74
2022/11/17 03:01:41;;;;;;;;;0.00;0.00;;;;;14.41;100.00;98464.81;5094584;27;57791;-76
2022/11/17 03:04:19;;;;;;;;;0.00;0.00;;;;;14.36;100.00;98480.09;5095038;27;45346;-76
2022/11/17 03:06:50;;;;;;;;;0.00;0.00;;;;;14.21;100.00;98483.38;5077959;27;46521;-77
2022/11/17 03:09:54;;;;;;;;;1.00;0.00;;;;;14.11;100.00;98498.84;5091710;27;45344;-76
2022/11/17 03:12:30;;;;;;;;;2.33;0.00;;;;;14.02;100.00;98508.94;5081383;27;45678;-76
2022/11/17 03:15:11;;;;;;;;;1.67;0.67;;;;;13.89;100.00;98561.63;5072446;27;45446;-76
2022/11/17 03:18:01;;;;;;;;;2.33;0.00;;;;;13.66;100.00;98578.41;5098002;27;45633;-75
2022/11/17 03:20:40;;;;;;;;;0.00;0.00;;;;;13.33;100.00;98554.91;5089886;27;45458;-75
2022/11/17 03:23:23;;;;;;;;;1.00;0.00;;;;;13.07;100.00;98542.56;5092603;27;45396;-75
2022/11/17 03:25:53;;;;;;;;;1.00;0.00;;;;;12.89;100.00;98561.75;5078922;27;45265;-75
2022/11/17 03:28:20;;;;;;;;;1.00;0.00;;;;;12.74;100.00;98565.78;5096081;27;46033;-76
2022/11/17 03:30:47;;;;;;;;;0.00;0.00;;;;;12.67;100.00;98584.56;5079278;27;45360;-75
2022/11/17 03:33:15;;;;;;;;;0.00;0.00;;;;;12.60;100.00;98583.91;5097468;27;45408;-75
2022/11/17 03:35:47;;;;;;;;;0.00;0.00;;;;;12.52;100.00;98576.25;5096021;27;45354;-75
2022/11/17 03:38:14;;;;;;;;;0.00;0.00;;;;;12.47;100.00;98591.41;5084609;27;46845;-76
2022/11/17 03:40:44;;;;;;;;;0.00;0.00;;;;;12.39;100.00;98580.19;5078057;27;67318;-75
2022/11/17 03:43:11;;;;;;;;;3.33;0.00;;;;;12.39;100.00;98589.91;5078289;27;45519;-77
2022/11/17 03:45:40;;;;;;;;;0.00;0.00;;;;;12.34;100.00;98598.00;5070376;27;45293;-75
2022/11/17 03:48:27;;;;;;;;;0.00;0.00;;;;;12.32;100.00;98618.34;5077819;27;47050;-76
2022/11/17 03:51:10;;;;;;;;;0.00;0.00;;;;;12.29;100.00;98618.44;5096608;27;45489;-75
2022/11/17 03:53:36;;;;;;;;;0.00;0.00;;;;;12.28;100.00;98622.00;5069526;27;45393;-76
2022/11/17 03:56:09;;;;;;;;;0.00;0.00;;;;;12.29;100.00;98621.09;5078728;27;45346;-76
2022/11/17 03:59:00;;;;;;;;;0.67;0.00;;;;;12.30;100.00;98620.16;5076901;27;47115;-76
2022/11/17 04:01:26;;;;;;;;;0.67;0.00;;;;;12.33;100.00;98634.19;5077445;27;45518;-76
2022/11/17 04:03:52;;;;;;;;;0.00;0.00;;;;;12.35;100.00;98634.13;5097100;27;45424;-76
2022/11/17 04:06:17;;;;;;;;;0.00;0.00;;;;;12.35;100.00;98643.84;5096949;27;45264;-75
2022/11/17 04:08:42;;;;;;;;;1.00;1.00;;;;;12.36;100.00;98646.47;5095636;27;45545;-76
2022/11/17 04:16:35;;;;;;;;;0.00;0.00;;;;;12.47;100.00;98649.63;5097089;27;45376;-75
2022/11/17 04:19:01;;;;;;;;;0.00;0.00;;;;;12.52;100.00;98658.31;5090699;27;66377;-76
2022/11/17 04:21:26;;;;;;;;;0.00;0.00;;;;;12.55;100.00;98662.63;5063658;27;45308;-76
2022/11/17 04:23:51;;;;;;;;;0.33;0.00;;;;;12.61;100.00;98666.84;5096405;27;54882;-76
2022/11/17 04:29:01;;;;;;;;;1.00;0.00;;;;;12.64;100.00;98666.75;5096282;27;45358;-76
2022/11/17 04:31:28;;;;;;;;;0.00;0.00;;;;;12.68;100.00;98676.34;5094279;27;45434;-76
2022/11/17 04:33:58;;;;;;;;;0.00;0.00;;;;;12.69;100.00;98676.28;5076473;27;45359;-75
2022/11/17 04:36:25;;;;;;;;;1.00;0.00;;;;;12.74;100.00;98679.66;5095001;27;45505;-76
2022/11/17 04:38:53;;;;;;;;;3.00;0.00;;;;;12.74;100.00;98692.03;5085679;27;45981;-75
2022/11/17 04:44:05;;;;;;;;;0.00;0.00;;;;;12.77;100.00;98702.50;5095302;27;45303;-75
2022/11/17 04:46:32;;;;;;;;;0.00;0.00;;;;;12.77;100.00;98708.66;5094918;27;45402;-77
2022/11/17 04:48:58;;;;;;;;;0.00;0.00;;;;;12.73;100.00;98709.72;5074815;28;47074;-75
2022/11/17 04:51:23;;;;;;;;;0.00;0.00;;;;;12.73;100.00;98716.75;5087550;27;45358;-75
2022/11/17 04:53:49;;;;;;;;;0.00;0.00;;;;;12.69;100.00;98723.94;5078333;27;45728;-76
2022/11/17 04:56:15;;;;;;;;;0.00;0.00;;;;;12.62;100.00;98726.81;5083660;27;45389;-76
2022/11/17 04:58:40;;;;;;;;;0.00;0.00;;;;;12.55;100.00;98727.00;5093089;27;46726;-76
2022/11/17 05:01:12;;;;;;;;;0.00;0.00;;;;;12.57;100.00;98724.34;5080953;27;45397;-76
2022/11/17 05:03:44;;;;;;;;;0.00;0.00;;;;;12.56;100.00;98736.69;5084105;27;45556;-75
2022/11/17 05:06:12;;;;;;;;;1.00;0.00;;;;;12.59;100.00;98731.31;5090876;27;45395;-75
2022/11/17 05:08:38;;;;;;;;;0.00;0.00;;;;;12.60;100.00;98734.81;5080061;27;45812;-75
2022/11/17 05:13:49;;;;;;;;;0.00;0.00;;;;;12.50;100.00;98742.16;5083855;27;45291;-75
2022/11/17 05:18:59;;;;;;;;;0.00;0.00;;;;;12.42;100.00;98745.97;5084067;27;45721;-75
2022/11/17 05:21:25;;;;;;;;;0.00;0.00;;;;;12.39;100.00;98756.63;5075569;27;45441;-76
2022/11/17 05:23:53;;;;;;;;;1.00;0.00;;;;;12.37;100.00;98756.69;5081240;27;45420;-75
2022/11/17 05:26:29;;;;;;;;;0.33;0.00;;;;;12.36;100.00;98754.97;5098994;27;45682;-75
2022/11/17 05:28:55;;;;;;;;;0.00;0.00;;;;;12.35;100.00;98757.63;5099695;27;46368;-76
2022/11/17 05:31:21;;;;;;;;;0.00;0.00;;;;;12.33;100.00;98760.34;5099286;27;45432;-77
2022/11/17 05:33:47;;;;;;;;;0.00;0.00;;;;;12.32;100.00;98780.66;5099595;27;45429;-76
2022/11/17 05:36:12;;;;;;;;;2.00;0.00;;;;;12.30;100.00;98768.34;5081373;27;45386;-75
2022/11/17 05:38:38;;;;;;;;;0.00;0.00;;;;;12.33;100.00;98777.06;5064176;27;47790;-76
2022/11/17 05:41:03;;;;;;;;;0.00;0.00;;;;;12.31;100.00;98773.63;5097709;27;62985;-75
2022/11/17 05:43:29;;;;;;;;;0.00;0.00;;;;;12.29;100.00;98775.44;5075350;27;45407;-76
2022/11/17 05:45:54;;;;;;;;;0.00;0.00;;;;;12.31;100.00;98784.22;5092537;27;45379;-75
2022/11/17 05:48:20;;;;;;;;;0.00;0.00;;;;;12.33;100.00;98786.81;5096724;27;67400;-76
2022/11/17 05:50:45;;;;;;;;;1.00;0.00;;;;;12.35;100.00;98784.09;5079045;27;46782;-77
2022/11/17 05:53:10;;;;;;;;;0.00;0.00;;;;;12.35;100.00;98790.25;5078921;27;45392;-79
2022/11/17 05:55:36;;;;;;;;;1.00;0.00;;;;;12.36;100.00;98788.47;5090543;27;45567;-78
2022/11/17 05:58:11;;;;;;;;;0.00;0.00;;;;;12.40;100.00;98798.06;5057483;27;47422;-77
2022/11/17 06:00:38;;;;;;;;;0.00;0.00;;;;;12.42;100.00;98802.41;5078380;27;45522;-78
2022/11/17 06:03:07;;;;;;;;;0.00;0.00;;;;;12.41;100.00;98805.09;5080273;27;45373;-78
2022/11/17 06:05:33;;;;;;;;;2.00;0.00;;;;;12.39;100.00;98805.16;5077783;27;45363;-79
2022/11/17 06:07:58;;;;;;;;;0.00;0.00;;;;;12.41;100.00;98810.38;5076051;27;63146;-78
2022/11/17 06:10:25;;;;;;;;;0.00;0.00;;;;;12.40;100.00;98814.81;5073868;27;45788;-79
2022/11/17 06:12:50;;;;;;;;;1.00;0.00;;;;;12.43;100.00;98827.09;5067011;27;45487;-78
2022/11/17 06:15:16;;;;;;;;;1.00;0.00;;;;;12.40;100.00;98817.47;5093355;27;60801;-77
2022/11/17 06:17:51;;;;;;;;;0.00;0.00;;;;;12.40;100.00;98822.75;5074013;27;50605;-77
2022/11/17 06:20:23;;;;;;;;;2.33;0.00;;;;;12.40;100.00;98817.47;5070645;27;45463;-77
2022/11/17 06:22:49;;;;;;;;;2.00;0.00;;;;;12.40;100.00;98814.81;5068458;27;45497;-78
2022/11/17 06:25:16;;;;;;;;;0.00;0.00;;;;;12.41;100.00;98813.94;5062378;27;58635;-78
2022/11/17 06:27:41;;;;;;;;;0.00;0.00;;;;;12.44;100.00;98819.13;5078560;27;46309;-77
2022/11/17 06:30:06;;;;;;;;;0.00;0.00;;;;;12.46;100.00;98817.28;5078156;27;58328;-79
2022/11/17 06:32:35;;;;;;;;;0.00;0.00;;;;;12.47;100.00;98818.19;5095576;27;45514;-78
2022/11/17 06:35:02;;;;;;;;;0.00;0.00;;;;;12.48;100.00;98827.84;5078653;27;45648;-77
2022/11/17 06:37:29;;;;;;;;;2.33;0.00;;;;;12.45;100.00;98831.44;5062756;27;46675;-77
2022/11/17 06:39:54;;;;;;;;;0.67;0.00;;;;;12.44;100.00;98826.19;5073180;27;60615;-78
2022/11/17 06:43:02;;;;;;;;;2.67;0.00;;;;;12.45;100.00;98828.78;5075220;27;56161;-75
2022/11/17 06:45:05;;;;;;;;;2.33;0.00;;;;;12.39;100.00;98817.50;5093447;27;45439;-75
2022/11/17 06:47:31;;;;;;;;;0.67;0.00;;;;;12.42;100.00;98828.03;5090712;27;46875;-76
2022/11/17 06:49:56;;;;;;;;;3.00;0.00;;;;;12.38;100.00;98821.06;5082618;27;60391;-76
2022/11/17 06:52:21;;;;;;;;;0.00;0.00;;;;;12.35;100.00;98837.91;5088104;27;54391;-75
2022/11/17 06:54:47;;;;;;;;;0.33;0.00;;;;;12.36;100.00;98828.16;5079904;27;45912;-76
2022/11/17 06:57:12;;;;;;;;;0.00;0.00;;;;;12.37;100.00;98835.22;5087031;27;63060;-76
2022/11/17 06:59:38;;;;;;;;;1.00;0.00;;;;;12.34;100.00;98852.03;5082204;27;49868;-78
2022/11/17 07:02:03;;;;;;;;;0.00;0.00;;;;;12.35;100.00;98851.13;5092325;27;45638;-77
2022/11/17 07:04:29;;;;;;;;;0.00;0.00;;;;;12.33;100.00;98842.38;5093151;27;47671;-75
2022/11/17 07:06:54;;;;;;;;;0.00;0.00;;;;;12.34;100.00;98844.09;5093609;27;46782;-76
2022/11/17 07:09:19;;;;;;;;;0.00;0.00;;;;;12.34;100.00;98841.47;5091560;27;66128;-74
2022/11/17 07:11:44;;;;;;;;;1.00;0.00;;;;;12.36;100.00;98849.34;5082622;27;63828;-76
2022/11/17 07:14:10;;;;;;;;;0.00;0.00;;;;;12.35;100.00;98844.97;5072166;27;54129;-77
2022/11/17 07:16:35;;;;;;;;;0.00;0.00;;;;;12.34;100.00;98854.69;5058381;27;77666;-77
2022/11/17 07:19:02;;;;;;;;;0.00;0.00;;;;;12.33;100.00;98856.47;5064476;27;75577;-75
2022/11/17 07:21:27;;;;;;;;;0.00;0.00;;;;;12.38;100.00;98864.28;5079265;27;45454;-78
2022/11/17 07:23:53;;;;;;;;;1.00;0.00;;;;;12.40;100.00;98857.16;5072445;27;60381;-77
2022/11/17 07:26:18;;;;;;;;;1.67;0.00;;;;;12.43;100.00;98866.81;5094858;27;46625;-75
2022/11/17 07:28:43;;;;;;;;;0.00;0.00;;;;;12.46;100.00;98866.69;5078423;27;45470;-76
2022/11/17 07:31:09;;;;;;;;;1.00;0.00;;;;;12.49;100.00;98864.84;5060288;27;69061;-77
2022/11/17 07:33:34;;;;;;;;;2.00;0.00;;;;;12.53;100.00;98860.34;5096374;27;45272;-78
2022/11/17 07:36:08;;;;;;;;;2.67;0.00;;;;;12.59;100.00;98866.31;5061206;27;48595;-78
2022/11/17 07:38:35;;;;;;;;;1.00;0.00;;;;;12.64;100.00;98860.91;5078410;27;45387;-80
2022/11/17 07:41:00;;;;;;;;;0.00;0.00;;;;;12.68;100.00;98867.84;5060368;27;45292;-80
2022/11/17 07:43:26;;;;;;;;;1.00;0.00;;;;;12.72;100.00;98872.13;5060913;27;45479;-79
2022/11/17 07:45:51;;;;;;;;;0.00;0.00;;;;;12.73;100.00;98870.34;5077221;27;61615;-75
2022/11/17 07:48:17;;;;;;;;;2.00;0.00;;;;;12.79;100.00;98878.13;5086451;27;45435;-75
2022/11/17 07:50:42;;;;;;;;;1.67;0.00;;;;;12.81;100.00;98877.16;5076512;27;69285;-75
2022/11/17 07:53:07;;;;;;;;;0.00;0.00;;;;;12.90;100.00;98881.31;5080753;27;67117;-76
2022/11/17 07:55:33;;;;;;;;;0.00;0.00;;;;;12.97;100.00;98890.81;5092832;27;74296;-77
2022/11/17 07:57:59;;;;;;;;;0.00;0.00;;;;;13.03;100.00;98897.72;5072060;27;71674;-77
2022/11/17 08:00:26;;;;;;;;;0.00;0.00;;;;;13.08;100.00;98898.44;5087194;27;45938;-76
2022/11/17 08:02:52;;;;;;;;;3.00;1.00;;;;;13.11;100.00;98885.97;5087151;27;45656;-76
2022/11/17 08:05:17;;;;;;;;;0.00;0.00;;;;;13.16;100.00;98900.88;5094943;27;57622;-77
2022/11/17 08:07:44;;;;;;;;;1.33;0.00;;;;;13.18;100.00;98893.75;5074712;27;45423;-76
2022/11/17 08:10:10;;;;;;;;;3.00;0.00;;;;;13.14;100.00;98897.38;5090959;27;45478;-77
2022/11/17 08:12:35;;;;;;;;;1.00;0.00;;;;;13.17;100.00;98897.31;5093602;27;45251;-76
2022/11/17 08:15:01;;;;;;;;;0.00;0.00;;;;;13.23;100.00;98907.75;5075401;27;45816;-77
2022/11/17 08:17:28;;;;;;;;;0.00;0.00;;;;;13.25;100.00;98903.25;5091854;27;71887;-77
2022/11/17 08:19:53;;;;;;;;;0.00;0.00;;;;;13.29;100.00;98912.84;5073337;27;45358;-76
2022/11/17 08:22:18;;;;;;;;;1.33;0.00;;;;;13.30;100.00;98906.63;5077476;27;45392;-77
2022/11/17 08:24:44;;;;;;;;;0.67;0.67;;;;;13.32;100.00;98907.47;5095426;27;52490;-77
2022/11/17 08:27:09;;;;;;;;;1.00;0.00;;;;;13.34;100.00;98922.41;5094420;27;73433;-76
2022/11/17 08:29:34;;;;;;;;;0.00;0.00;;;;;13.33;100.00;98911.84;5093007;27;45586;-76
2022/11/17 08:32:00;;;;;;;;;0.00;0.00;;;;;13.37;100.00;98924.09;5085902;27;67655;-77
2022/11/17 08:34:25;;;;;;;;;2.00;0.00;;;;;13.41;100.00;98920.41;5091891;27;75040;-77
2022/11/17 08:36:50;;;;;;;;;0.00;0.00;;;;;13.38;100.00;98917.03;5093350;27;71720;-77
2022/11/17 08:39:15;;;;;;;;;1.00;0.00;;;;;13.40;100.00;98921.34;5093003;27;68271;-76
2022/11/17 08:41:41;;;;;;;;;0.67;0.00;;;;;13.40;100.00;98917.81;5070921;27;65879;-76
2022/11/17 08:44:06;;;;;;;;;0.00;0.00;;;;;13.42;100.00;98908.91;5078752;27;74353;-77
2022/11/17 08:46:33;;;;;;;;;0.00;0.00;;;;;13.44;100.00;98915.03;5079823;27;73102;-76
2022/11/17 08:48:59;;;;;;;;;0.00;0.00;;;;;13.45;100.00;98918.56;5099594;27;45539;-76
2022/11/17 08:51:25;;;;;;;;;2.00;0.00;;;;;13.45;100.00;98908.81;5097681;27;45275;-77
2022/11/17 08:53:51;;;;;;;;;0.00;0.00;;;;;13.50;100.00;98922.78;5098803;27;46696;-76
2022/11/17 08:56:16;;;;;;;;;0.00;0.00;;;;;13.50;100.00;98928.09;5098216;27;72669;-76
2022/11/17 08:58:43;;;;;;;;;0.00;0.00;;;;;13.54;100.00;98920.91;5080801;27;45485;-76
2022/11/17 09:01:14;;;;;;;;;0.33;0.33;;;;;13.59;100.00;98925.16;5092977;27;45411;-77
2022/11/17 09:03:41;;;;;;;;;2.00;1.00;;;;;13.67;100.00;98910.78;5093248;27;46884;-76
2022/11/17 09:06:06;;;;;;;;;4.00;0.00;;;;;13.70;100.00;98911.56;5093158;27;45544;-76
2022/11/17 09:08:32;;;;;;;;;1.00;0.00;;;;;13.74;100.00;98915.84;5098779;27;45468;-76
2022/11/17 09:10:57;;;;;;;;;0.00;0.00;;;;;13.76;100.00;98911.34;5098542;27;45496;-76
2022/11/17 09:13:23;;;;;;;;;2.00;0.67;;;;;13.78;100.00;98917.47;5097523;27;46449;-76
2022/11/17 09:15:48;;;;;;;;;1.00;0.00;;;;;13.84;100.00;98933.16;5077815;27;45465;-76
2022/11/17 09:18:14;;;;;;;;;2.00;0.00;;;;;13.88;100.00;98926.84;5076083;27;68254;-76
2022/11/17 09:20:39;;;;;;;;;0.00;0.00;;;;;13.88;100.00;98926.00;5078261;27;67527;-76
2022/11/17 09:23:04;;;;;;;;;1.00;0.00;;;;;13.88;100.00;98923.34;5097402;27;75345;-76
2022/11/17 09:25:30;;;;;;;;;2.00;0.33;;;;;13.85;100.00;98921.66;5099112;27;45393;-76
2022/11/17 09:27:56;;;;;;;;;2.33;0.00;;;;;13.80;100.00;98926.25;5098640;27;45453;-76
2022/11/17 09:30:21;;;;;;;;;0.00;0.00;;;;;13.81;100.00;98927.13;5098738;27;45406;-76
2022/11/17 09:32:48;;;;;;;;;6.00;2.33;;;;;13.81;100.00;98930.63;5080036;27;45481;-77
2022/11/17 09:35:13;;;;;;;;;3.00;0.00;;;;;13.82;100.00;98935.03;5080304;27;45383;-76
2022/11/17 09:37:39;;;;;;;;;2.67;1.00;;;;;13.83;100.00;98943.84;5098312;27;45499;-76
2022/11/17 09:40:05;;;;;;;;;3.00;0.00;;;;;13.79;100.00;98935.09;5078406;27;69111;-76
2022/11/17 09:42:36;;;;;;;;;1.33;0.00;;;;;13.77;100.00;98942.25;5080542;27;47446;-76
2022/11/17 09:45:15;;;;;;;;;2.00;0.00;;;;;13.77;100.00;98944.03;5080743;27;45975;-76
2022/11/17 09:47:50;;;;;;;;;3.00;2.00;;;;;13.75;100.00;98945.91;5076324;27;45505;-76
2022/11/17 09:50:21;;;;;;;;;0.00;0.00;;;;;13.79;100.00;98947.50;5077269;28;45293;-77
2022/11/17 09:53:23;;;;;;;;;2.67;0.00;;;;;13.80;100.00;98957.22;5097837;27;47999;-76
2022/11/17 09:55:55;;;;;;;;;1.00;0.00;;;;;13.78;100.00;98948.44;5098529;27;45226;-77
2022/11/17 09:59:04;;;;;;;;;0.00;0.00;;;;;13.83;100.00;98957.97;5077038;27;45217;-76
2022/11/17 10:01:30;;;;;;;;;0.00;0.00;;;;;13.93;100.00;98961.19;5013369;28;45459;-76
2022/11/17 10:03:58;;;;;;;;;2.00;0.00;;;;;14.00;100.00;98953.91;4997755;28;72147;-76
2022/11/17 10:06:30;;;;;;;;;1.67;1.00;;;;;14.16;100.00;98955.97;5040987;27;45420;-77
2022/11/17 10:09:14;;;;;;;;;2.67;1.00;;;;;14.36;100.00;98962.41;5094129;27;45370;-76
2022/11/17 10:11:41;;;;;;;;;3.67;1.67;;;;;14.51;100.00;98977.84;5095027;27;45593;-77
2022/11/17 10:14:06;;;;;;;;;0.00;0.00;;;;;14.70;100.00;98979.84;5068929;28;45998;-77
2022/11/17 10:16:32;;;;;;;;;2.00;1.00;;;;;14.78;100.00;98981.31;5095221;27;47231;-76
2022/11/17 10:18:57;;;;;;;;;1.00;1.00;;;;;14.87;100.00;98962.41;5073738;27;52289;-76
2022/11/17 10:21:23;;;;;;;;;3.33;1.00;;;;;14.97;100.00;98970.91;5097316;27;68152;-77
2022/11/17 10:23:55;;;;;;;;;2.67;1.00;;;;;15.02;100.00;98974.28;5095692;27;46000;-76
2022/11/17 10:26:21;;;;;;;;;2.33;0.00;;;;;15.07;100.00;98956.34;5076226;27;45443;-76
2022/11/17 10:28:47;;;;;;;;;0.67;0.00;;;;;15.11;100.00;98957.97;5098256;27;65137;-76
2022/11/17 10:31:15;;;;;;;;;3.33;0.33;;;;;15.18;100.00;98953.31;5062356;27;45772;-77
2022/11/17 10:33:48;;;;;;;;;1.67;0.00;;;;;15.23;100.00;98953.09;5086322;27;45650;-76
2022/11/17 10:36:18;;;;;;;;;2.00;1.00;;;;;15.26;100.00;98955.66;5078212;27;45447;-76
2022/11/17 10:38:51;;;;;;;;;5.67;0.00;;;;;15.30;100.00;98952.81;5075805;27;45371;-75
2022/11/17 10:41:23;;;;;;;;;2.67;1.00;;;;;15.36;100.00;98965.03;5068379;27;45549;-75
2022/11/17 10:44:03;;;;;;;;;3.00;1.00;;;;;15.40;100.00;98953.34;5092107;27;45816;-77
2022/11/17 10:46:29;;;;;;;;;2.00;0.67;;;;;15.39;100.00;98962.22;5086195;27;45706;-75
2022/11/17 10:48:59;;;;;;;;;0.00;0.00;;;;;15.34;100.00;98954.44;5086168;27;45436;-76
2022/11/17 10:51:27;;;;;;;;;0.67;0.00;;;;;15.29;100.00;98952.91;5086138;27;45488;-77
2022/11/17 10:54:00;;;;;;;;;2.00;0.00;;;;;15.24;100.00;98944.22;5089541;27;46134;-77
2022/11/17 10:56:26;;;;;;;;;0.00;0.00;;;;;15.22;100.00;98946.06;5072314;27;45586;-78
2022/11/17 10:58:55;;;;;;;;;0.00;0.00;;;;;15.13;100.00;98944.63;5054981;27;45661;-77
2022/11/17 11:01:27;;;;;;;;;0.00;0.00;;;;;15.05;100.00;98950.22;5086619;27;45569;-77
2022/11/17 11:03:53;;;;;;;;;1.33;0.00;;;;;14.96;100.00;98949.69;5083317;27;46916;-80
2022/11/17 11:06:18;;;;;;;;;1.67;0.00;;;;;14.86;100.00;98943.84;5088558;27;72733;-77
2022/11/17 11:08:50;;;;;;;;;0.33;0.00;;;;;14.77;100.00;98944.19;5090419;27;45345;-77
2022/11/17 11:11:41;;;;;;;;;0.00;0.00;;;;;14.75;100.00;98957.50;5074966;27;45493;-75
2022/11/17 11:14:34;;;;;;;;;3.00;0.00;;;;;14.73;100.00;98937.25;5068989;27;45576;-76
2022/11/17 11:17:08;;;;;;;;;1.00;0.00;;;;;14.72;100.00;98946.16;5075902;27;45383;-76
2022/11/17 11:19:33;;;;;;;;;0.00;0.00;;;;;14.72;100.00;98941.69;5077581;27;45352;-76
2022/11/17 11:22:19;;;;;;;;;0.67;0.67;;;;;14.77;100.00;98934.44;5097072;27;67148;-78
2022/11/17 11:25:12;;;;;;;;;2.00;0.67;;;;;14.78;100.00;98936.16;5097976;27;46707;-77
2022/11/17 11:27:51;;;;;;;;;0.33;0.33;;;;;14.76;100.00;98931.84;5098091;27;45392;-78
2022/11/17 11:30:18;;;;;;;;;0.00;0.00;;;;;14.79;100.00;98934.38;5079835;27;45379;-77
2022/11/17 11:33:05;;;;;;;;;0.00;0.00;;;;;14.85;100.00;98927.03;5070172;27;45573;-77
2022/11/17 11:35:51;;;;;;;;;2.67;0.00;;;;;15.02;100.00;98942.38;5095558;27;45752;-77
2022/11/17 11:38:39;;;;;;;;;0.00;0.00;;;;;15.25;100.00;98937.97;5095260;27;45445;-77
2022/11/17 11:41:20;;;;;;;;;1.67;0.00;;;;;15.38;100.00;98937.41;5078678;27;45481;-75
2022/11/17 11:44:00;;;;;;;;;1.00;0.00;;;;;15.49;100.00;98942.31;5075278;28;45411;-76
2022/11/17 11:47:04;;;;;;;;;0.00;0.00;;;;;15.52;100.00;98930.72;5093607;27;46913;-76
2022/11/17 11:49:47;;;;;;;;;1.00;0.00;;;;;15.50;100.00;98949.41;5070520;27;47235;-76
2022/11/17 11:52:21;;;;;;;;;0.00;0.00;;;;;15.41;100.00;98939.97;5075476;27;45753;-76
2022/11/17 11:54:55;;;;;;;;;0.00;0.00;;;;;15.39;100.00;98943.59;5070359;27;45624;-76
2022/11/17 11:57:25;;;;;;;;;2.00;0.33;;;;;15.34;100.00;98941.16;5073678;27;47119;-76
2022/11/17 11:59:55;;;;;;;;;3.00;0.00;;;;;15.34;100.00;98943.81;5092566;27;45505;-76